PWSweather.com
Personal Weather Stations
Station Observations

MakarauRodneyNZ

Lat: -36.52421, Lon: 174.47572

Elevation: 606

Station Type: Davis VP2

http://kaiparaweather.dynu.net/index.php

High Low Average
Temperature 81.6°F27.6°C 63.4°F17.4°C 70.4°F21.3°C
Dew Point 68.9°F20.5°C 57.0°F13.9°C 63.5°F17.5°C
Winds 6.9 mph 11.1 kmh Calm Calm 1.0 mph E1.6 kmh E
Wind Gusts 13.8 mph22.2 kmh -- 2.0 mph3.2 kmh
Humidity 96% 60% 80%
Pressure 29.89 in1012.2 mb 29.81 in1009.5 mb -
Precipitation 0.26 in6.6 mm - -
Hour Temp Dew Point Humidity Winds Wind Gusts Pressure Precip Precip Rate Daily Precip Total
12:00 AM 64.4°F18.0°C 57.1°F13.9°C 77% Calm Calm -- 29.85 in1010.8 mb - 0.00 in0.0 mm 0.00 in0.0 mm
12:10 AM 64.4°F18.0°C 57.0°F13.9°C 77% Calm Calm -- 29.85 in1010.8 mb - 0.00 in0.0 mm 0.00 in0.0 mm
12:20 AM 64.4°F18.0°C 57.0°F13.9°C 77% Calm Calm -- 29.85 in1010.8 mb - 0.00 in0.0 mm 0.00 in0.0 mm
12:30 AM 64.4°F18.0°C 57.0°F13.9°C 77% Calm Calm -- 29.85 in1010.8 mb - 0.00 in0.0 mm 0.00 in0.0 mm
12:40 AM 64.5°F18.1°C 57.1°F13.9°C 77% Calm Calm -- 29.84 in1010.5 mb - 0.00 in0.0 mm 0.00 in0.0 mm
12:50 AM 64.4°F18.0°C 57.1°F13.9°C 77% Calm Calm -- 29.84 in1010.5 mb - 0.00 in0.0 mm 0.00 in0.0 mm
01:00 AM 64.4°F18.0°C 57.4°F14.1°C 78% Calm Calm -- 29.84 in1010.5 mb - 0.00 in0.0 mm 0.00 in0.0 mm
01:10 AM 64.2°F17.9°C 57.6°F14.2°C 79% Calm Calm -- 29.83 in1010.2 mb - 0.00 in0.0 mm 0.00 in0.0 mm
01:20 AM 64.1°F17.8°C 57.5°F14.2°C 79% Calm Calm -- 29.83 in1010.2 mb - 0.00 in0.0 mm 0.00 in0.0 mm
01:30 AM 64.0°F17.8°C 57.4°F14.1°C 79% Calm Calm -- 29.83 in1010.2 mb - 0.00 in0.0 mm 0.00 in0.0 mm
01:40 AM 63.9°F17.7°C 57.3°F14.1°C 79% 2.3 mph NNE3.7 kmh NNE 3.5 mph5.6 kmh 29.82 in1009.8 mb - 0.00 in0.0 mm 0.00 in0.0 mm
01:50 AM 63.9°F17.7°C 57.6°F14.2°C 80% Calm Calm -- 29.82 in1009.8 mb - 0.00 in0.0 mm 0.00 in0.0 mm
02:00 AM 63.9°F17.7°C 57.6°F14.2°C 80% Calm Calm -- 29.82 in1009.8 mb - 0.00 in0.0 mm 0.00 in0.0 mm
02:10 AM 63.8°F17.7°C 57.5°F14.2°C 80% Calm Calm -- 29.82 in1009.8 mb - 0.00 in0.0 mm 0.00 in0.0 mm
02:20 AM 63.7°F17.6°C 57.8°F14.3°C 81% Calm Calm -- 29.82 in1009.8 mb - 0.00 in0.0 mm 0.00 in0.0 mm
02:30 AM 63.7°F17.6°C 57.8°F14.3°C 81% Calm Calm -- 29.82 in1009.8 mb - 0.00 in0.0 mm 0.00 in0.0 mm
02:40 AM 63.6°F17.6°C 57.7°F14.3°C 81% Calm Calm -- 29.81 in1009.5 mb - 0.00 in0.0 mm 0.00 in0.0 mm
02:50 AM 63.6°F17.6°C 57.3°F14.1°C 80% Calm Calm -- 29.81 in1009.5 mb - 0.00 in0.0 mm 0.00 in0.0 mm
03:00 AM 63.6°F17.6°C 57.6°F14.2°C 81% Calm Calm -- 29.81 in1009.5 mb - 0.00 in0.0 mm 0.00 in0.0 mm
03:10 AM 63.6°F17.6°C 57.7°F14.3°C 81% Calm Calm -- 29.81 in1009.5 mb - 0.00 in0.0 mm 0.00 in0.0 mm
03:20 AM 63.5°F17.5°C 57.6°F14.2°C 81% Calm Calm -- 29.81 in1009.5 mb - 0.00 in0.0 mm 0.00 in0.0 mm
03:30 AM 63.5°F17.5°C 57.6°F14.2°C 81% Calm Calm -- 29.81 in1009.5 mb - 0.00 in0.0 mm 0.00 in0.0 mm
03:40 AM 63.5°F17.5°C 57.6°F14.2°C 81% Calm Calm -- 29.81 in1009.5 mb - 0.00 in0.0 mm 0.00 in0.0 mm
03:50 AM 63.4°F17.4°C 57.8°F14.3°C 82% Calm Calm -- 29.81 in1009.5 mb - 0.00 in0.0 mm 0.00 in0.0 mm
04:00 AM 63.4°F17.4°C 57.8°F14.3°C 82% Calm Calm -- 29.81 in1009.5 mb - 0.00 in0.0 mm 0.00 in0.0 mm
04:10 AM 63.4°F17.4°C 57.8°F14.3°C 82% Calm Calm -- 29.81 in1009.5 mb - 0.00 in0.0 mm 0.00 in0.0 mm
04:20 AM 63.5°F17.5°C 57.9°F14.4°C 82% Calm Calm -- 29.82 in1009.8 mb - 0.00 in0.0 mm 0.00 in0.0 mm
04:30 AM 63.5°F17.5°C 58.3°F14.6°C 83% 1.2 mph NE1.9 kmh NE 4.6 mph7.4 kmh 29.81 in1009.5 mb - 0.00 in0.0 mm 0.00 in0.0 mm
04:40 AM 64.0°F17.8°C 58.7°F14.8°C 83% Calm Calm -- 29.81 in1009.5 mb - 0.00 in0.0 mm 0.00 in0.0 mm
04:50 AM 64.2°F17.9°C 58.9°F14.9°C 83% Calm Calm -- 29.81 in1009.5 mb - 0.00 in0.0 mm 0.00 in0.0 mm
05:00 AM 64.2°F17.9°C 59.3°F15.2°C 84% Calm Calm -- 29.81 in1009.5 mb - 0.00 in0.0 mm 0.00 in0.0 mm
05:10 AM 64.2°F17.9°C 58.9°F14.9°C 83% Calm Calm -- 29.82 in1009.8 mb - 0.00 in0.0 mm 0.00 in0.0 mm
05:20 AM 64.1°F17.8°C 58.8°F14.9°C 83% Calm Calm -- 29.82 in1009.8 mb - 0.00 in0.0 mm 0.00 in0.0 mm
05:30 AM 64.1°F17.8°C 59.2°F15.1°C 84% Calm Calm -- 29.82 in1009.8 mb - 0.00 in0.0 mm 0.00 in0.0 mm
05:40 AM 64.2°F17.9°C 59.3°F15.2°C 84% Calm Calm -- 29.82 in1009.8 mb - 0.00 in0.0 mm 0.00 in0.0 mm
05:50 AM 64.5°F18.1°C 59.6°F15.3°C 84% Calm Calm -- 29.82 in1009.8 mb - 0.00 in0.0 mm 0.00 in0.0 mm
06:00 AM 64.8°F18.2°C 59.8°F15.4°C 84% Calm Calm 2.3 mph3.7 kmh 29.82 in1009.8 mb - 0.00 in0.0 mm 0.00 in0.0 mm
06:10 AM 65.1°F18.4°C 60.1°F15.6°C 84% Calm Calm 1.2 mph1.9 kmh 29.82 in1009.8 mb - 0.00 in0.0 mm 0.00 in0.0 mm
06:20 AM 65.6°F18.7°C 60.6°F15.9°C 84% Calm Calm -- 29.82 in1009.8 mb - 0.00 in0.0 mm 0.00 in0.0 mm
06:30 AM 66.2°F19.0°C 60.9°F16.1°C 83% Calm Calm 1.2 mph1.9 kmh 29.82 in1009.8 mb - 0.00 in0.0 mm 0.00 in0.0 mm
06:40 AM 67.0°F19.4°C 61.3°F16.3°C 82% Calm Calm -- 29.82 in1009.8 mb - 0.00 in0.0 mm 0.00 in0.0 mm
06:50 AM 67.8°F19.9°C 61.7°F16.5°C 81% 1.2 mph NE1.9 kmh NE 2.3 mph3.7 kmh 29.82 in1009.8 mb - 0.00 in0.0 mm 0.00 in0.0 mm
07:00 AM 68.5°F20.3°C 62.1°F16.7°C 80% 1.2 mph NE1.9 kmh NE 3.5 mph5.6 kmh 29.82 in1009.8 mb - 0.00 in0.0 mm 0.00 in0.0 mm
07:10 AM 69.1°F20.6°C 62.3°F16.8°C 79% Calm Calm -- 29.83 in1010.2 mb - 0.00 in0.0 mm 0.00 in0.0 mm
07:20 AM 69.5°F20.8°C 62.7°F17.1°C 79% Calm Calm -- 29.83 in1010.2 mb - 0.00 in0.0 mm 0.00 in0.0 mm
07:30 AM 69.7°F20.9°C 62.5°F16.9°C 78% Calm Calm -- 29.83 in1010.2 mb - 0.00 in0.0 mm 0.00 in0.0 mm
07:40 AM 69.9°F21.1°C 62.4°F16.9°C 77% Calm Calm -- 29.83 in1010.2 mb - 0.00 in0.0 mm 0.00 in0.0 mm
07:50 AM 69.8°F21.0°C 62.6°F17.0°C 78% Calm Calm 1.2 mph1.9 kmh 29.83 in1010.2 mb - 0.00 in0.0 mm 0.00 in0.0 mm
08:00 AM 70.2°F21.2°C 63.4°F17.4°C 79% Calm Calm -- 29.83 in1010.2 mb - 0.00 in0.0 mm 0.00 in0.0 mm
08:10 AM 70.9°F21.6°C 63.3°F17.4°C 77% 2.3 mph NNE3.7 kmh NNE 5.8 mph9.3 kmh 29.83 in1010.2 mb - 0.00 in0.0 mm 0.00 in0.0 mm
08:20 AM 71.4°F21.9°C 63.1°F17.3°C 75% 1.2 mph NE1.9 kmh NE 3.5 mph5.6 kmh 29.83 in1010.2 mb - 0.00 in0.0 mm 0.00 in0.0 mm
08:30 AM 72.2°F22.3°C 63.8°F17.7°C 75% Calm Calm -- 29.83 in1010.2 mb - 0.00 in0.0 mm 0.00 in0.0 mm
08:40 AM 74.2°F23.4°C 65.0°F18.3°C 73% 1.2 mph NNE1.9 kmh NNE 6.9 mph11.1 kmh 29.83 in1010.2 mb - 0.00 in0.0 mm 0.00 in0.0 mm
08:50 AM 75.7°F24.3°C 64.0°F17.8°C 67% 3.5 mph NNE5.6 kmh NNE 8.1 mph13.0 kmh 29.83 in1010.2 mb - 0.00 in0.0 mm 0.00 in0.0 mm
09:00 AM 77.1°F25.1°C 64.8°F18.2°C 66% Calm Calm 2.3 mph3.7 kmh 29.83 in1010.2 mb - 0.00 in0.0 mm 0.00 in0.0 mm
09:10 AM 79.1°F26.2°C 64.0°F17.8°C 60% Calm Calm 2.3 mph3.7 kmh 29.83 in1010.2 mb - 0.00 in0.0 mm 0.00 in0.0 mm
09:20 AM 79.5°F26.4°C 64.4°F18.0°C 60% 3.5 mph NNE5.6 kmh NNE 6.9 mph11.1 kmh 29.83 in1010.2 mb - 0.00 in0.0 mm 0.00 in0.0 mm
09:30 AM 79.6°F26.4°C 64.5°F18.1°C 60% 2.3 mph N3.7 kmh N 6.9 mph11.1 kmh 29.84 in1010.5 mb - 0.00 in0.0 mm 0.00 in0.0 mm
09:40 AM 78.3°F25.7°C 64.2°F17.9°C 62% Calm Calm 3.5 mph5.6 kmh 29.84 in1010.5 mb - 0.00 in0.0 mm 0.00 in0.0 mm
09:50 AM 77.9°F25.5°C 64.3°F17.9°C 63% 1.2 mph N1.9 kmh N 4.6 mph7.4 kmh 29.84 in1010.5 mb - 0.00 in0.0 mm 0.00 in0.0 mm
10:00 AM 77.8°F25.4°C 64.6°F18.1°C 64% 1.2 mph NNE1.9 kmh NNE 5.8 mph9.3 kmh 29.84 in1010.5 mb - 0.00 in0.0 mm 0.00 in0.0 mm
10:10 AM 76.8°F24.9°C 64.1°F17.8°C 65% 1.2 mph NNE1.9 kmh NNE 3.5 mph5.6 kmh 29.84 in1010.5 mb - 0.00 in0.0 mm 0.00 in0.0 mm
10:20 AM 76.6°F24.8°C 64.4°F18.0°C 66% Calm Calm 1.2 mph1.9 kmh 29.84 in1010.5 mb - 0.00 in0.0 mm 0.00 in0.0 mm
10:30 AM 77.4°F25.2°C 65.2°F18.4°C 66% Calm Calm 8.1 mph13.0 kmh 29.84 in1010.5 mb - 0.00 in0.0 mm 0.00 in0.0 mm
10:40 AM 77.7°F25.4°C 65.5°F18.6°C 66% Calm Calm 1.2 mph1.9 kmh 29.84 in1010.5 mb - 0.00 in0.0 mm 0.00 in0.0 mm
10:50 AM 78.8°F26.0°C 65.5°F18.6°C 64% 1.2 mph NE1.9 kmh NE 3.5 mph5.6 kmh 29.84 in1010.5 mb - 0.00 in0.0 mm 0.00 in0.0 mm
11:00 AM 80.0°F26.7°C 66.2°F19.0°C 63% Calm Calm -- 29.84 in1010.5 mb - 0.00 in0.0 mm 0.00 in0.0 mm
11:10 AM 81.0°F27.2°C 66.3°F19.1°C 61% Calm Calm -- 29.83 in1010.2 mb - 0.00 in0.0 mm 0.00 in0.0 mm
11:20 AM 81.6°F27.6°C 66.8°F19.3°C 61% 2.3 mph NNE3.7 kmh NNE 10.4 mph16.7 kmh 29.84 in1010.5 mb - 0.00 in0.0 mm 0.00 in0.0 mm
11:30 AM 81.0°F27.2°C 65.8°F18.8°C 60% Calm Calm 1.2 mph1.9 kmh 29.83 in1010.2 mb - 0.00 in0.0 mm 0.00 in0.0 mm
11:40 AM 80.4°F26.9°C 65.7°F18.7°C 61% 1.2 mph NNW1.9 kmh NNW 3.5 mph5.6 kmh 29.83 in1010.2 mb - 0.00 in0.0 mm 0.00 in0.0 mm
11:50 AM 79.7°F26.5°C 66.0°F18.9°C 63% Calm Calm -- 29.83 in1010.2 mb - 0.00 in0.0 mm 0.00 in0.0 mm
12:00 PM 79.3°F26.3°C 66.1°F18.9°C 64% Calm Calm -- 29.83 in1010.2 mb - 0.00 in0.0 mm 0.00 in0.0 mm
12:10 PM 79.1°F26.2°C 65.9°F18.8°C 64% 1.2 mph NNW1.9 kmh NNW 6.9 mph11.1 kmh 29.83 in1010.2 mb - 0.00 in0.0 mm 0.00 in0.0 mm
12:20 PM 79.1°F26.2°C 65.4°F18.6°C 63% 1.2 mph SW1.9 kmh SW -- 29.83 in1010.2 mb - 0.00 in0.0 mm 0.00 in0.0 mm
12:30 PM 79.9°F26.6°C 66.2°F19.0°C 63% Calm Calm -- 29.83 in1010.2 mb - 0.00 in0.0 mm 0.00 in0.0 mm
12:40 PM 79.7°F26.5°C 66.0°F18.9°C 63% 3.5 mph WNW5.6 kmh WNW 4.6 mph7.4 kmh 29.83 in1010.2 mb - 0.00 in0.0 mm 0.00 in0.0 mm
12:50 PM 79.1°F26.2°C 65.9°F18.8°C 64% 4.6 mph WSW7.4 kmh WSW 9.2 mph14.8 kmh 29.83 in1010.2 mb - 0.00 in0.0 mm 0.00 in0.0 mm
01:00 PM 79.4°F26.3°C 66.1°F18.9°C 64% 3.5 mph NW5.6 kmh NW 5.8 mph9.3 kmh 29.83 in1010.2 mb - 0.00 in0.0 mm 0.00 in0.0 mm
01:10 PM 79.3°F26.3°C 66.5°F19.2°C 65% 2.3 mph W3.7 kmh W 9.2 mph14.8 kmh 29.83 in1010.2 mb - 0.00 in0.0 mm 0.00 in0.0 mm
01:20 PM 79.5°F26.4°C 66.2°F19.0°C 64% 3.5 mph W5.6 kmh W 6.9 mph11.1 kmh 29.83 in1010.2 mb - 0.00 in0.0 mm 0.00 in0.0 mm
01:30 PM 79.9°F26.6°C 66.2°F19.0°C 63% 4.6 mph WSW7.4 kmh WSW 10.4 mph16.7 kmh 29.83 in1010.2 mb - 0.00 in0.0 mm 0.00 in0.0 mm
01:40 PM 78.9°F26.1°C 66.6°F19.2°C 66% 4.6 mph WSW7.4 kmh WSW 8.1 mph13.0 kmh 29.83 in1010.2 mb - 0.00 in0.0 mm 0.00 in0.0 mm
01:50 PM 78.4°F25.8°C 66.9°F19.4°C 68% 1.2 mph W1.9 kmh W 10.4 mph16.7 kmh 29.83 in1010.2 mb - 0.00 in0.0 mm 0.00 in0.0 mm
02:00 PM 79.0°F26.1°C 66.7°F19.3°C 66% 6.9 mph WNW11.1 kmh WNW 13.8 mph22.2 kmh 29.83 in1010.2 mb - 0.00 in0.0 mm 0.00 in0.0 mm
02:10 PM 79.1°F26.2°C 66.8°F19.3°C 66% 2.3 mph W3.7 kmh W 5.8 mph9.3 kmh 29.82 in1009.8 mb - 0.00 in0.0 mm 0.00 in0.0 mm
02:20 PM 79.5°F26.4°C 68.0°F20.0°C 68% 3.5 mph W5.6 kmh W 10.4 mph16.7 kmh 29.82 in1009.8 mb - 0.00 in0.0 mm 0.00 in0.0 mm
02:30 PM 79.2°F26.2°C 66.4°F19.1°C 65% 1.2 mph WSW1.9 kmh WSW 5.8 mph9.3 kmh 29.83 in1010.2 mb - 0.00 in0.0 mm 0.00 in0.0 mm
02:40 PM 79.6°F26.4°C 66.8°F19.3°C 65% 4.6 mph WSW7.4 kmh WSW 12.7 mph20.4 kmh 29.83 in1010.2 mb - 0.00 in0.0 mm 0.00 in0.0 mm
02:50 PM 80.6°F27.0°C 67.7°F19.8°C 65% 6.9 mph NW11.1 kmh NW 10.4 mph16.7 kmh 29.83 in1010.2 mb - 0.00 in0.0 mm 0.00 in0.0 mm
03:00 PM 81.0°F27.2°C 67.7°F19.8°C 64% Calm Calm 5.8 mph9.3 kmh 29.83 in1010.2 mb - 0.00 in0.0 mm 0.00 in0.0 mm
03:10 PM 79.4°F26.3°C 68.3°F20.2°C 69% 4.6 mph WSW7.4 kmh WSW 10.4 mph16.7 kmh 29.82 in1009.8 mb - 0.00 in0.0 mm 0.00 in0.0 mm
03:20 PM 78.9°F26.1°C 67.9°F19.9°C 69% 4.6 mph WNW7.4 kmh WNW 11.5 mph18.5 kmh 29.82 in1009.8 mb - 0.00 in0.0 mm 0.00 in0.0 mm
03:30 PM 79.1°F26.2°C 68.9°F20.5°C 71% Calm Calm -- 29.83 in1010.2 mb - 0.00 in0.0 mm 0.00 in0.0 mm
03:40 PM 78.7°F25.9°C 68.1°F20.1°C 70% Calm Calm -- 29.83 in1010.2 mb - 0.00 in0.0 mm 0.00 in0.0 mm
03:50 PM 77.8°F25.4°C 67.2°F19.6°C 70% Calm Calm 1.2 mph1.9 kmh 29.83 in1010.2 mb - 0.00 in0.0 mm 0.00 in0.0 mm
04:00 PM 76.3°F24.6°C 68.6°F20.3°C 77% Calm Calm -- 29.83 in1010.2 mb - 0.03 in0.8 mm 0.03 in0.8 mm
04:10 PM 74.1°F23.4°C 68.3°F20.2°C 82% Calm Calm -- 29.83 in1010.2 mb - 0.12 in3.0 mm 0.15 in3.8 mm
04:20 PM 72.4°F22.4°C 67.9°F19.9°C 86% Calm Calm -- 29.82 in1009.8 mb - 0.02 in0.5 mm 0.17 in4.3 mm
04:30 PM 71.3°F21.8°C 67.2°F19.6°C 87% Calm Calm -- 29.82 in1009.8 mb - 0.00 in0.0 mm 0.17 in4.3 mm
04:40 PM 70.7°F21.5°C 67.3°F19.6°C 89% Calm Calm -- 29.82 in1009.8 mb - 0.00 in0.0 mm 0.17 in4.3 mm
04:50 PM 70.2°F21.2°C 67.1°F19.5°C 90% Calm Calm -- 29.83 in1010.2 mb - 0.01 in0.3 mm 0.17 in4.3 mm
05:00 PM 70.0°F21.1°C 67.3°F19.6°C 91% Calm Calm -- 29.82 in1009.8 mb - 0.02 in0.5 mm 0.19 in4.8 mm
05:10 PM 69.6°F20.9°C 66.5°F19.2°C 90% Calm Calm -- 29.83 in1010.2 mb - 0.02 in0.5 mm 0.21 in5.3 mm
05:20 PM 69.5°F20.8°C 67.1°F19.5°C 92% Calm Calm -- 29.83 in1010.2 mb - 0.02 in0.5 mm 0.22 in5.6 mm
05:30 PM 69.1°F20.6°C 66.7°F19.3°C 92% Calm Calm -- 29.83 in1010.2 mb - 0.03 in0.8 mm 0.25 in6.4 mm
05:40 PM 69.1°F20.6°C 66.7°F19.3°C 92% Calm Calm -- 29.83 in1010.2 mb - 0.01 in0.3 mm 0.26 in6.6 mm
05:50 PM 69.0°F20.6°C 66.9°F19.4°C 93% Calm Calm -- 29.83 in1010.2 mb - 0.00 in0.0 mm 0.26 in6.6 mm
06:00 PM 69.3°F20.7°C 67.5°F19.7°C 94% Calm Calm -- 29.84 in1010.5 mb - 0.00 in0.0 mm 0.26 in6.6 mm
06:10 PM 69.6°F20.9°C 67.8°F19.9°C 94% Calm Calm -- 29.84 in1010.5 mb - 0.00 in0.0 mm 0.26 in6.6 mm
06:20 PM 69.5°F20.8°C 67.7°F19.8°C 94% Calm Calm -- 29.84 in1010.5 mb - 0.00 in0.0 mm 0.26 in6.6 mm
06:30 PM 69.3°F20.7°C 67.2°F19.6°C 93% Calm Calm -- 29.84 in1010.5 mb - 0.00 in0.0 mm 0.26 in6.6 mm
06:40 PM 69.2°F20.7°C 67.1°F19.5°C 93% Calm Calm -- 29.84 in1010.5 mb - 0.00 in0.0 mm 0.26 in6.6 mm
06:50 PM 69.0°F20.6°C 66.9°F19.4°C 93% Calm Calm -- 29.84 in1010.5 mb - 0.00 in0.0 mm 0.26 in6.6 mm
07:00 PM 68.9°F20.5°C 66.8°F19.3°C 93% Calm Calm -- 29.84 in1010.5 mb - 0.00 in0.0 mm 0.26 in6.6 mm
07:10 PM 68.7°F20.4°C 66.9°F19.4°C 94% Calm Calm -- 29.84 in1010.5 mb - 0.00 in0.0 mm 0.26 in6.6 mm
07:20 PM 68.4°F20.2°C 66.3°F19.1°C 93% Calm Calm -- 29.84 in1010.5 mb - 0.00 in0.0 mm 0.26 in6.6 mm
07:30 PM 68.2°F20.1°C 66.1°F18.9°C 93% Calm Calm -- 29.85 in1010.8 mb - 0.00 in0.0 mm 0.26 in6.6 mm
07:40 PM 68.0°F20.0°C 66.2°F19.0°C 94% Calm Calm -- 29.85 in1010.8 mb - 0.00 in0.0 mm 0.26 in6.6 mm
07:50 PM 67.8°F19.9°C 66.0°F18.9°C 94% Calm Calm -- 29.85 in1010.8 mb - 0.00 in0.0 mm 0.26 in6.6 mm
08:00 PM 67.6°F19.8°C 65.8°F18.8°C 94% Calm Calm -- 29.85 in1010.8 mb - 0.00 in0.0 mm 0.26 in6.6 mm
08:10 PM 67.4°F19.7°C 65.6°F18.7°C 94% Calm Calm -- 29.86 in1011.2 mb - 0.00 in0.0 mm 0.26 in6.6 mm
08:20 PM 67.2°F19.6°C 65.4°F18.6°C 94% Calm Calm -- 29.86 in1011.2 mb - 0.00 in0.0 mm 0.26 in6.6 mm
08:30 PM 67.0°F19.4°C 65.3°F18.5°C 94% Calm Calm -- 29.86 in1011.2 mb - 0.00 in0.0 mm 0.26 in6.6 mm
08:40 PM 66.9°F19.4°C 65.1°F18.4°C 94% Calm Calm -- 29.87 in1011.5 mb - 0.00 in0.0 mm 0.26 in6.6 mm
08:50 PM 66.7°F19.3°C 64.9°F18.3°C 94% Calm Calm -- 29.87 in1011.5 mb - 0.00 in0.0 mm 0.26 in6.6 mm
09:00 PM 66.6°F19.2°C 64.8°F18.2°C 94% Calm Calm -- 29.87 in1011.5 mb - 0.00 in0.0 mm 0.26 in6.6 mm
09:10 PM 66.5°F19.2°C 64.7°F18.2°C 94% Calm Calm -- 29.88 in1011.9 mb - 0.00 in0.0 mm 0.26 in6.6 mm
09:20 PM 66.3°F19.1°C 64.9°F18.3°C 95% Calm Calm -- 29.88 in1011.9 mb - 0.00 in0.0 mm 0.26 in6.6 mm
09:30 PM 66.3°F19.1°C 64.8°F18.2°C 95% Calm Calm -- 29.88 in1011.9 mb - 0.00 in0.0 mm 0.26 in6.6 mm
09:40 PM 66.2°F19.0°C 64.7°F18.2°C 95% 1.2 mph NNE1.9 kmh NNE 1.2 mph1.9 kmh 29.88 in1011.9 mb - 0.00 in0.0 mm 0.26 in6.6 mm
09:50 PM 66.1°F18.9°C 64.6°F18.1°C 95% Calm Calm -- 29.88 in1011.9 mb - 0.00 in0.0 mm 0.26 in6.6 mm
10:00 PM 65.9°F18.8°C 64.4°F18.0°C 95% Calm Calm -- 29.88 in1011.9 mb - 0.00 in0.0 mm 0.26 in6.6 mm
10:10 PM 65.8°F18.8°C 64.3°F17.9°C 95% Calm Calm -- 29.88 in1011.9 mb - 0.00 in0.0 mm 0.26 in6.6 mm
10:20 PM 65.6°F18.7°C 64.1°F17.8°C 95% Calm Calm -- 29.88 in1011.9 mb - 0.00 in0.0 mm 0.26 in6.6 mm
10:30 PM 65.5°F18.6°C 64.1°F17.8°C 95% Calm Calm -- 29.88 in1011.9 mb - 0.00 in0.0 mm 0.26 in6.6 mm
10:40 PM 65.5°F18.6°C 64.0°F17.8°C 95% Calm Calm -- 29.88 in1011.9 mb - 0.00 in0.0 mm 0.26 in6.6 mm
10:50 PM 65.4°F18.6°C 63.9°F17.7°C 95% Calm Calm -- 29.89 in1012.2 mb - 0.00 in0.0 mm 0.26 in6.6 mm
11:00 PM 65.3°F18.5°C 63.8°F17.7°C 95% Calm Calm -- 29.89 in1012.2 mb - 0.00 in0.0 mm 0.28 in7.1 mm
11:10 PM 65.1°F18.4°C 63.6°F17.6°C 95% Calm Calm -- 29.89 in1012.2 mb - 0.00 in0.0 mm 0.28 in7.1 mm
11:20 PM 65.0°F18.3°C 63.8°F17.7°C 96% Calm Calm -- 29.89 in1012.2 mb - 0.00 in0.0 mm 0.28 in7.1 mm
11:30 PM 64.8°F18.2°C 63.6°F17.6°C 96% Calm Calm -- 29.89 in1012.2 mb - 0.00 in0.0 mm 0.28 in7.1 mm
11:40 PM 64.6°F18.1°C 63.1°F17.3°C 95% Calm Calm -- 29.89 in1012.2 mb - 0.00 in0.0 mm 0.28 in7.1 mm
11:50 PM 64.4°F18.0°C 63.2°F17.3°C 96% Calm Calm -- 29.89 in1012.2 mb - 0.00 in0.0 mm 0.28 in7.1 mm